Kelsall, United Kingdom
Current Conditions -  °F | °C
As of 4:20 PM on Friday 21 Nov 2014 (Local Time) from EGGP Reporting Station
Light Rain Light Rain  
Wind Chill: 40°   Ceiling: 2500
Heat Index: 46°   Visibility: 2.5mi
Dew Point: 45°   Wind: 15mph
Humidity: 93%   Direction: 120°ESE
Pressure: 29.88"   Gusts: NA
Location:  53.21°N, 2.71°W
Report Text: EGGP 211620Z 12013KT 4000 -RA SCT011 BKN025 08/07 Q1012
Loading
Personal Weather Stations






























Interactive Weather Map New forecast layout! Learn more

10-Day Weather Forecast

Advertisements
Track Severe Weather on mobile